This is the latest recevied weather packets stored in our database for station/object N6RDS-8. If no packets are shown the sender has not sent any weather packets the latest 1 day(s).
| Time | Temp. | Humidity | Pressure | Rain* | Wind** | Luminosity | Snow |
|---|---|---|---|---|---|---|---|
| 1836274651 | 21.11° C | 78% | 1022.9 hPa | 0 mm | 1.34 m/s, 153° | 0 W/m² | - |
| 1836274504 | 20.56° C | 84% | 1022.9 hPa | 3.05 mm | 0.89 m/s, 139° | 0 W/m² | - |
| 1836274349 | 21.11° C | 77% | 1022.7 hPa | 0 mm | 0.45 m/s, 168° | 0 W/m² | - |
| 1836274202 | 21.11° C | 79% | 1023 hPa | 0 mm | 1.34 m/s, 130° | 0 W/m² | - |
| 1836274048 | 21.67° C | 76% | 1022.7 hPa | 0 mm | 0.89 m/s, 125° | 0 W/m² | - |
| 1778038052 | 16.67° C | 45% | 1016.7 hPa | 0 mm | 0.89 m/s, 133° | 0 W/m² | - |
| 1778037749 | 16.67° C | 44% | 1016.7 hPa | 0 mm | 0.89 m/s, 263° | 0 W/m² | - |
| 1778037446 | 16.67° C | 43% | 1016.6 hPa | 0 mm | 0.45 m/s, 204° | 0 W/m² | - |
| 1778037143 | 16.67° C | 42% | 1016.5 hPa | 0 mm | 0.45 m/s, 106° | 0 W/m² | - |
| 1778036841 | 16.67° C | 41% | 1016.2 hPa | 0 mm | 0.45 m/s, 136° | 0 W/m² | - |
| 1778036538 | 16.67° C | 41% | 1016.2 hPa | 0 mm | 1.34 m/s, 253° | 0 W/m² | - |
| 1778036235 | 17.22° C | 40% | 1016 hPa | 0 mm | 1.34 m/s, 322° | 0 W/m² | - |
| 1778035931 | 17.22° C | 40% | 1015.9 hPa | 0 mm | 1.34 m/s, 302° | 0 W/m² | - |
| 1778035629 | 17.22° C | 39% | 1015.9 hPa | 0 mm | 1.34 m/s, 137° | 0 W/m² | - |
| 1778035325 | 17.22° C | 39% | 1015.9 hPa | 0 mm | 1.34 m/s, 313° | 0 W/m² | - |
| 1778035021 | 17.22° C | 38% | 1015.7 hPa | 0 mm | 1.34 m/s, 173° | 0 W/m² | - |
| 1778034719 | 17.78° C | 37% | 1015.5 hPa | 0 mm | 1.79 m/s, 253° | 0 W/m² | - |
| 1778034416 | 17.78° C | 37% | 1015.6 hPa | 0 mm | 0.89 m/s, 204° | 0 W/m² | - |
| 1778034113 | 17.78° C | 37% | 1015.2 hPa | 0 mm | 1.79 m/s, 305° | 0 W/m² | - |
| 1778033811 | 17.78° C | 36% | 1015.2 hPa | 0 mm | 1.34 m/s, 211° | 0 W/m² | - |
| 1778033508 | 18.33° C | 34% | 1015.1 hPa | 0 mm | 1.34 m/s, 261° | 1 W/m² | - |
| 1778033200 | 18.89° C | 33% | 1015 hPa | 0 mm | 1.34 m/s, 201° | 2 W/m² | - |
| 1778032897 | 18.89° C | 34% | 1014.9 hPa | 0 mm | 1.79 m/s, 209° | 4 W/m² | - |
| 1778032595 | 19.44° C | 34% | 1014.9 hPa | 0 mm | 0.89 m/s, 131° | 7 W/m² | - |
| 1778032292 | 19.44° C | 34% | 1014.9 hPa | 0 mm | 0.89 m/s, 223° | 10 W/m² | - |
* Rain latest hour (hover to see other rain measurements)
** Current wind speed in m/s (hover to see current wind gust speed)